Latest Weather Observations for Bellambi

IDN60801

Issued at 6:03 pm EST Tuesday 26 July 2016 (issued every 30 minutes, with the page automatically refreshed every 10 minutes)

About weather observations | Map of weather stations | Latest weather observations for NSW | Other Formats
Station Details ID: 068228 Name: BELLAMBI AWS Lat: -34.37 Lon: 150.93 Height: 10.0 m
Data from the previous 72 hours. | See also: Recent months at Bellambi
Date/Time
EST
Temp
°C
App
Temp
°C
Dew
Point
°C
Rel
Hum
%
Delta-T
°C
Wind Press
QNH
hPa
Press
MSL
hPa
Rain since
9am
mm
Dir  Spd
km/h
Gust
km/h
Spd
kts
Gust
kts
26/06:00pm 13.6 8.7 1.9 45 5.1 WNW 17 20 9 11 - - 0.0
26/05:30pm 14.3 10.0 0.9 40 5.7 W 13 24 7 13 - - 0.0
26/05:00pm 15.2 11.1 -0.1 35 6.5 WNW 11 17 6 9 - - 0.0
26/04:30pm 16.2 13.2 6.1 51 4.9 NNE 11 19 6 10 - - 0.0
26/04:00pm 16.4 13.5 8.1 58 4.2 NNE 13 20 7 11 - - 0.0
26/03:30pm 16.7 13.0 8.1 57 4.4 NNE 17 24 9 13 - - 0.0
26/03:00pm 16.5 12.1 7.2 54 4.6 NE 20 26 11 14 - - 0.0
26/02:30pm 18.4 12.8 1.0 31 7.7 NW 20 32 11 17 - - 0.0
26/02:00pm 18.4 14.6 1.9 33 7.5 NW 11 19 6 10 - - 0.0
26/01:30pm 17.8 13.9 1.3 33 7.3 NW 11 17 6 9 - - 0.0
26/01:00pm 17.2 13.1 2.4 37 6.7 W 13 19 7 10 - - 0.0
26/12:30pm 17.1 13.5 5.1 45 5.7 WNW 13 22 7 12 - - 0.0
26/12:00pm 16.7 11.9 2.7 39 6.4 WNW 17 30 9 16 - - 0.0
26/11:30am 16.5 11.4 2.9 40 6.2 WNW 19 30 10 16 - - 0.0
26/11:00am 15.8 11.1 3.3 43 5.7 W 17 26 9 14 - - 0.0
26/10:30am 15.1 12.1 4.2 48 5.0 W 9 19 5 10 - - 0.0
26/10:00am 15.6 11.8 4.0 46 5.4 W 13 24 7 13 - - 0.0
26/09:30am 14.9 11.9 4.0 48 5.0 WSW 9 24 5 13 - - 0.0
26/09:00am 14.7 12.6 4.1 49 4.9 W 4 15 2 8 - - 0.0
26/08:30am 14.4 12.8 4.4 51 4.6 WNW 2 7 1 4 - - 0.0
26/08:00am 13.3 10.6 3.9 53 4.3 W 7 15 4 8 - - 0.0
26/07:30am 11.8 8.4 4.1 59 3.5 WNW 11 13 6 7 - - 0.0
26/07:00am 10.3 7.6 3.8 64 2.9 NW 7 15 4 8 - - 0.0
26/06:30am 12.0 8.9 3.8 57 3.7 WNW 9 17 5 9 - - 0.0
26/06:00am 12.7 8.7 4.9 59 3.6 NE 15 17 8 9 - - 0.0
26/05:30am 11.4 8.7 5.7 68 2.6 NNE 9 13 5 7 - - 0.0
26/05:00am 12.3 8.4 3.3 54 4.0 NE 13 20 7 11 - - 0.0
26/04:30am 11.9 8.1 3.9 58 3.6 N 13 17 7 9 - - 0.0
26/04:00am 12.5 8.1 4.5 58 3.6 NNE 17 24 9 13 - - 0.0
26/03:30am 12.2 6.3 3.9 57 3.7 NNE 24 30 13 16 - - 0.0
26/03:00am 11.8 5.8 5.2 64 3.0 NNE 26 33 14 18 - - 0.0
26/02:30am 11.9 5.9 5.1 63 3.1 NNE 26 32 14 17 - - 0.0
26/02:00am 11.6 5.5 5.0 64 3.0 NNE 26 33 14 18 - - 0.0
26/01:30am 9.8 5.7 4.6 70 2.3 N 15 22 8 12 - - 0.0
26/01:00am 9.2 5.5 4.4 72 2.1 NNW 13 19 7 10 - - 0.0
26/12:30am 9.1 5.9 3.3 67 2.5 NW 9 17 5 9 - - 0.0
26/12:00am 11.3 7.3 3.1 57 3.6 N 13 19 7 10 - - 0.0
 
Date/Time
EST
Temp
°C
App
Temp
°C
Dew
Point
°C
Rel
Hum
%
Delta-T
°C
Wind Press
QNH
hPa
Press
MSL
hPa
Rain since
9am
mm
Dir  Spd
km/h
Gust
km/h
Spd
kts
Gust
kts
25/11:30pm 10.8 7.9 4.7 66 2.8 NW 9 17 5 9 - - 0.0
25/11:00pm 11.4 8.1 2.4 54 3.9 N 9 17 5 9 - - 0.0
25/10:30pm 11.4 7.7 2.4 54 3.9 NNE 11 20 6 11 - - 0.0
25/10:00pm 11.4 8.8 3.2 57 3.6 N 6 17 3 9 - - 0.0
25/09:30pm 11.2 8.0 3.3 58 3.5 NW 9 17 5 9 - - 0.0
25/09:00pm 11.8 8.2 3.1 55 3.8 NW 11 24 6 13 - - 0.0
25/08:30pm 11.9 9.1 2.9 54 3.9 NW 7 13 4 7 - - 0.0
25/08:00pm 12.3 8.7 3.0 53 4.1 N 11 17 6 9 - - 0.0
25/07:30pm 12.9 9.1 3.8 54 4.1 NNW 13 20 7 11 - - 0.0
25/07:00pm 12.7 7.5 2.6 50 4.4 NNW 19 28 10 15 - - 0.0
25/06:30pm 12.6 7.9 3.3 53 4.1 NW 17 30 9 16 - - 0.0
25/06:00pm 13.0 8.2 2.6 49 4.6 NW 17 28 9 15 - - 0.0
25/05:30pm 12.8 8.7 2.1 48 4.6 W 13 28 7 15 - - 0.0
25/05:00pm 13.3 9.2 2.2 47 4.8 WNW 13 37 7 20 - - 0.0
25/04:30pm 14.4 11.4 1.7 42 5.5 SSW 7 13 4 7 - - 0.0
25/04:00pm 15.3 11.1 1.4 39 6.1 WNW 13 22 7 12 - - 0.0
25/03:30pm 15.6 12.4 1.0 37 6.3 SE 7 13 4 7 - - 0.0
25/03:00pm 15.8 11.1 1.2 37 6.4 W 15 35 8 19 - - 0.0
25/02:35pm 16.0 9.1 2.8 41 6.0 NW 28 46 15 25 - - 0.0
25/02:30pm 16.0 9.1 2.8 41 6.0 NW 28 43 15 23 - - 0.0
25/02:00pm 16.1 11.1 1.4 37 6.5 WNW 17 33 9 18 - - 0.0
25/01:30pm 16.5 12.3 1.8 37 6.5 W 13 28 7 15 - - 0.0
25/01:00pm 15.8 8.3 1.5 38 6.3 W 30 48 16 26 - - 0.0
25/12:30pm 15.2 7.8 1.7 40 5.9 WSW 30 48 16 26 - - 0.0
25/12:27pm 15.0 7.8 0.8 38 6.1 WSW 28 48 15 26 - - 0.0
25/12:00pm 15.0 7.9 1.2 39 6.0 W 28 44 15 24 - - 0.0
25/11:30am 15.0 8.7 1.5 40 5.9 W 24 35 13 19 - - 0.0
25/11:00am 14.7 8.0 1.6 41 5.7 W 26 44 14 24 - - 0.0
25/10:30am 14.3 8.1 2.2 44 5.3 W 24 39 13 21 - - 0.0
25/10:23am 13.9 6.8 1.5 43 5.4 W 28 50 15 27 - - 0.0
25/10:19am 14.1 7.8 1.4 42 5.5 W 24 50 13 27 - - 0.0
25/10:00am 14.2 9.8 2.5 45 5.2 W 15 30 8 16 - - 0.0
25/09:30am 13.6 9.2 2.5 47 4.9 WSW 15 28 8 15 - - 0.0
25/09:00am 12.9 9.3 3.0 51 4.4 WSW 11 22 6 12 - - 0.0
25/08:45am 12.3 6.6 2.7 52 4.2 WNW 22 43 12 23 - - 0.0
25/08:30am 11.9 2.2 2.9 54 3.9 NW 43 67 23 36 - - 0.0
25/08:02am 11.5 4.1 3.8 59 3.4 NW 32 50 17 27 - - 0.0
25/08:00am 11.5 4.4 3.5 58 3.5 NW 30 44 16 24 - - 0.0
25/07:30am 10.6 5.3 1.9 55 3.7 WNW 19 30 10 16 - - 0.0
25/07:00am 10.2 5.4 2.8 60 3.2 NW 17 24 9 13 - - 0.0
25/06:30am 10.4 4.8 1.5 54 3.7 WNW 20 32 11 17 - - 0.0
25/06:00am 10.1 5.4 1.0 53 3.7 WNW 15 30 8 16 - - 0.0
25/05:30am 10.4 4.1 1.5 54 3.7 WNW 24 35 13 19 - - 0.0
25/05:00am 10.3 3.9 1.2 53 3.8 WNW 24 39 13 21 - - 0.0
25/04:36am 10.5 3.4 1.6 54 3.7 WNW 28 48 15 26 - - 0.0
25/04:30am 10.2 4.4 2.1 57 3.4 WNW 22 37 12 20 - - 0.0
25/04:00am 10.1 6.3 1.7 56 3.5 W 11 26 6 14 - - 0.0
25/03:30am 10.4 3.4 2.0 56 3.5 WNW 28 48 15 26 - - 0.0
25/03:08am 10.5 2.6 2.1 56 3.6 WNW 33 52 18 28 - - 0.0
25/03:00am 10.5 2.8 2.4 57 3.5 WNW 32 46 17 25 - - 0.0
25/02:30am 10.9 1.7 3.7 61 3.2 NW 41 59 22 32 - - 0.0
25/02:20am 10.9 2.8 3.5 60 3.3 NW 35 54 19 29 - - 0.0
25/02:00am 11.1 4.8 3.6 60 3.3 NW 26 41 14 22 - - 0.0
25/01:30am 11.2 5.3 3.7 60 3.3 NW 24 35 13 19 - - 0.0
25/01:00am 11.0 7.1 3.3 59 3.4 NW 13 22 7 12 - - 0.0
25/12:30am 8.8 5.9 1.7 61 2.9 WSW 6 11 3 6 - - 0.0
25/12:00am 8.7 7.0 1.6 61 2.9 CALM 0 9 0 5 - - 0.0
 
Date/Time
EST
Temp
°C
App
Temp
°C
Dew
Point
°C
Rel
Hum
%
Delta-T
°C
Wind Press
QNH
hPa
Press
MSL
hPa
Rain since
9am
mm
Dir  Spd
km/h
Gust
km/h
Spd
kts
Gust
kts
24/11:30pm 9.7 7.2 1.6 57 3.4 NW 4 6 2 3 - - 0.0
24/11:00pm 10.3 7.9 2.2 57 3.4 SSW 4 7 2 4 - - 0.0
24/10:30pm 10.2 7.1 1.1 53 3.8 NW 7 11 4 6 - - 0.0
24/10:00pm 10.2 5.4 2.6 59 3.2 NNE 17 22 9 12 - - 0.0
24/09:30pm 10.2 7.5 3.7 64 2.9 ESE 7 20 4 11 - - 0.0
24/09:00pm 9.0 5.5 1.4 59 3.1 NW 9 13 5 7 - - 0.0
24/08:30pm 10.4 5.0 2.5 58 3.4 NNW 20 24 11 13 - - 0.0
24/08:00pm 9.4 5.7 2.5 62 2.9 NW 11 13 6 7 - - 0.0
24/07:30pm 9.3 6.2 1.5 58 3.2 WNW 7 9 4 5 - - 0.0
24/07:00pm 9.1 5.3 2.0 61 3.0 NW 11 13 6 7 - - 0.0
24/06:30pm 8.9 5.6 2.3 63 2.8 WNW 9 11 5 6 - - 0.0
24/06:00pm 9.2 6.3 2.8 64 2.7 NW 7 11 4 6 - - 0.0
24/05:30pm 10.6 7.7 2.4 57 3.5 NW 7 9 4 5 - - 0.0
24/05:00pm 11.7 8.0 0.2 45 4.7 NW 9 13 5 7 - - 0.0
24/04:30pm 13.5 10.5 -1.6 35 6.1 W 4 11 2 6 - - 0.0
24/04:00pm 13.8 10.0 -0.6 37 5.9 WNW 9 13 5 7 - - 0.0
24/03:30pm 14.2 9.7 -0.6 36 6.1 W 13 17 7 9 - - 0.0
24/03:00pm 13.7 7.2 -2.3 33 6.3 W 22 32 12 17 - - 0.0
24/02:30pm 13.8 8.4 -1.0 36 6.0 W 17 24 9 13 - - 0.0
24/02:00pm 14.2 8.9 -0.6 36 6.1 W 17 24 9 13 - - 0.0
24/01:30pm 14.0 7.9 -2.0 33 6.4 W 20 30 11 16 - - 0.0
24/01:00pm 14.2 8.9 -0.3 37 6.0 WSW 17 26 9 14 - - 0.0
24/12:30pm 14.1 9.1 -1.5 34 6.3 W 15 22 8 12 - - 0.0
24/12:00pm 13.8 8.5 -0.3 38 5.8 WSW 17 24 9 13 - - 0.0
24/11:30am 13.2 7.2 -2.7 33 6.2 W 19 28 10 15 - - 0.0
24/11:00am 13.6 8.8 -0.1 39 5.7 W 15 20 8 11 - - 0.0
24/10:30am 12.9 7.4 -2.2 35 5.9 WSW 17 24 9 13 - - 0.0
24/10:00am 12.4 7.1 -0.8 40 5.3 W 17 26 9 14 - - 0.0
24/09:30am 10.9 6.8 -0.5 45 4.6 W 11 19 6 10 - - 0.0
24/09:00am 10.2 4.8 -1.2 45 4.5 W 17 26 9 14 - - 0.0
24/08:30am 9.7 5.9 -1.1 47 4.2 W 9 13 5 7 - - 0.0
24/08:00am 8.6 3.9 -1.5 49 3.9 W 13 20 7 11 - - 0.0
24/07:30am 8.2 3.1 -1.9 49 3.8 WSW 15 22 8 12 - - 0.0
24/07:00am 7.9 2.0 -1.9 50 3.7 WSW 19 24 10 13 - - 0.0
24/06:30am 8.0 2.5 -2.0 49 3.7 W 17 26 9 14 - - 0.0
24/06:00am 8.2 2.7 -2.1 48 3.9 W 17 26 9 14 - - 0.0
24/05:30am 8.0 2.5 -1.8 50 3.7 W 17 26 9 14 - - 0.0
24/05:00am 7.7 2.6 -1.8 51 3.6 W 15 26 8 14 - - 0.0
24/04:30am 7.8 2.4 -1.4 52 3.5 SW 17 26 9 14 - - 0.0
24/04:00am 8.2 2.2 -1.6 50 3.7 W 20 33 11 18 - - 0.0
24/03:30am 8.3 2.9 -1.5 50 3.7 WSW 17 30 9 16 - - 0.0
24/03:00am 8.1 3.1 -1.4 51 3.6 SW 15 32 8 17 - - 0.0
24/02:30am 8.2 2.8 -1.6 50 3.7 SW 17 24 9 13 - - 0.0
24/02:00am 8.4 3.0 -1.7 49 3.8 SW 17 28 9 15 - - 0.0
24/01:30am 8.7 3.6 -1.7 48 4.0 WNW 15 24 8 13 - - 0.0
24/01:00am 9.2 3.7 -2.1 45 4.3 W 17 24 9 13 - - 0.0
24/12:30am 9.4 3.4 -1.9 45 4.3 W 20 33 11 18 - - 0.0
24/12:00am 9.6 4.5 -2.0 44 4.4 WSW 15 24 8 13 - - 0.0
 
Date/Time
EST
Temp
°C
App
Temp
°C
Dew
Point
°C
Rel
Hum
%
Delta-T
°C
Wind Press
QNH
hPa
Press
MSL
hPa
Rain since
9am
mm
Dir  Spd
km/h
Gust
km/h
Spd
kts
Gust
kts
23/11:30pm 9.7 4.9 -2.3 43 4.5 W 13 19 7 10 - - 0.0
23/11:00pm 10.0 4.1 -2.3 42 4.7 WSW 19 26 10 14 - - 0.0
23/10:30pm 10.3 3.8 -2.4 41 4.8 WSW 22 39 12 21 - - 0.0
23/10:00pm 10.4 4.3 -2.6 40 4.9 WSW 20 28 11 15 - - 0.0
23/09:30pm 10.5 4.6 -2.2 41 4.9 WSW 19 35 10 19 - - 0.0
23/09:00pm 10.7 5.2 -2.3 40 5.0 WSW 17 28 9 15 - - 0.0
23/08:30pm 11.0 5.5 -2.1 40 5.1 SW 17 28 9 15 - - 0.0
23/08:00pm 11.3 4.1 -1.8 40 5.1 WSW 26 44 14 24 - - 0.0
23/07:30pm 11.4 4.3 -1.0 42 4.9 WSW 26 50 14 27 - - 0.0
23/07:16pm 11.7 4.2 -1.1 41 5.1 WSW 28 48 15 26 - - 0.0
23/07:00pm 11.6 5.4 -0.5 43 4.9 WSW 22 50 12 27 - - 0.0
23/06:57pm 11.7 5.4 -0.8 42 5.0 WSW 22 50 12 27 - - 0.0
23/06:56pm 11.7 5.0 -1.1 41 5.1 WSW 24 50 13 27 - - 0.0
23/06:30pm 11.8 6.3 0.6 46 4.6 WSW 19 30 10 16 - - 0.0

Other Formats:

Comma delimited format used in spreadsheet applications
http://www.bom.gov.au/fwo/IDN60801/IDN60801.94749.axf

JavaScript Object Notation format (JSON) in row-major order
http://www.bom.gov.au/fwo/IDN60801/IDN60801.94749.json